createdAt,value
2018-07-15T00:00:08.459Z,93.6
2018-07-15T00:05:35.633Z,94.3
2018-07-15T00:10:11.087Z,94.5
2018-07-15T00:15:13.071Z,95.3
2018-07-15T00:20:11.137Z,95.7
2018-07-15T00:25:05.463Z,96.3
2018-07-15T00:30:07.961Z,97.1
2018-07-15T00:35:03.240Z,97.1
2018-07-15T00:45:18.498Z,98.9
2018-07-15T00:50:05.407Z,99.5
2018-07-15T00:55:08.410Z,99.9
2018-07-15T01:00:10.415Z,99.9
2018-07-15T01:10:03.086Z,99.9
2018-07-15T01:15:20.284Z,99.9
2018-07-15T01:20:17.907Z,99.9
2018-07-15T01:25:28.465Z,99.9
2018-07-15T01:30:10.908Z,99.9
2018-07-15T01:35:05.229Z,99.9
2018-07-15T01:40:05.571Z,99.9
2018-07-15T01:45:28.747Z,99.9
2018-07-15T01:50:08.221Z,99.9
2018-07-15T01:55:20.248Z,99.9
2018-07-15T02:00:07.701Z,99.9
2018-07-15T02:10:12.881Z,99.9
2018-07-15T02:15:23.348Z,99.9
2018-07-15T02:20:23.013Z,99.9
2018-07-15T02:25:26.001Z,99.9
2018-07-15T02:30:21.109Z,99.9
2018-07-15T02:35:33.179Z,99.9
2018-07-15T02:40:10.661Z,99.9
2018-07-15T02:45:11.048Z,99.9
2018-07-15T02:50:11.116Z,99.9
2018-07-15T03:00:10.901Z,99.9
2018-07-15T03:05:05.271Z,99.9
2018-07-15T03:10:03.168Z,99.9
2018-07-15T03:15:12.665Z,99.9
2018-07-15T03:20:18.265Z,99.9
2018-07-15T03:25:23.764Z,99.9
2018-07-15T03:30:38.585Z,99.9
2018-07-15T03:35:05.485Z,99.9
2018-07-15T03:40:03.378Z,99.9
2018-07-15T03:45:10.356Z,99.9
2018-07-15T03:50:38.133Z,99.9
2018-07-15T04:00:28.046Z,99.9
2018-07-15T04:05:03.363Z,99.9
2018-07-15T04:10:05.671Z,99.9
2018-07-15T04:15:10.180Z,99.9
2018-07-15T04:20:15.304Z,99.9
2018-07-15T04:25:08.200Z,99.9
2018-07-15T04:30:02.638Z,99.9
2018-07-15T04:35:20.703Z,99.9
2018-07-15T04:40:20.286Z,99.9
2018-07-15T04:45:08.110Z,99.9
2018-07-15T04:50:21.214Z,99.9
2018-07-15T04:55:05.381Z,99.9
2018-07-15T05:00:02.759Z,99.9
2018-07-15T05:10:38.294Z,99.9
2018-07-15T05:15:05.230Z,99.9
2018-07-15T05:20:02.776Z,48.7
2018-07-15T05:25:08.275Z,99.9
2018-07-15T05:35:08.037Z,99.9
2018-07-15T05:45:11.033Z,99.9
2018-07-15T05:50:03.485Z,99.9
2018-07-15T05:55:10.471Z,99.9
2018-07-15T06:00:25.626Z,99.9
2018-07-15T06:10:35.974Z,99.9
2018-07-15T06:15:03.365Z,99.9
2018-07-15T06:20:02.835Z,99.9
2018-07-15T06:30:23.783Z,97.9
2018-07-15T06:35:05.419Z,97.4
2018-07-15T06:40:03.375Z,97.3
2018-07-15T06:45:22.968Z,95
2018-07-15T06:55:10.649Z,92.6
2018-07-15T07:00:10.611Z,92.4
2018-07-15T07:05:11.021Z,93.1
2018-07-15T07:10:02.897Z,41.9
2018-07-15T07:15:03.578Z,92.5
2018-07-15T07:20:18.365Z,90.6
2018-07-15T07:25:06.076Z,89.5
2018-07-15T07:30:13.607Z,89.6
2018-07-15T07:35:10.486Z,87.2
2018-07-15T07:40:08.361Z,88.3
2018-07-15T07:45:05.273Z,86.4
2018-07-15T07:50:02.726Z,86.4
2018-07-15T07:55:05.706Z,85.6
2018-07-15T08:00:08.239Z,84.2
2018-07-15T08:05:21.173Z,84
2018-07-15T08:10:10.631Z,83.1
2018-07-15T08:15:03.520Z,83.1
2018-07-15T08:20:05.500Z,81.9
2018-07-15T08:25:08.480Z,77.9
2018-07-15T08:35:05.155Z,76.5
2018-07-15T08:45:03.292Z,77.7
2018-07-15T08:50:10.277Z,75.9
2018-07-15T08:55:05.608Z,76
2018-07-15T09:00:05.596Z,75.9
2018-07-15T09:05:28.821Z,74
2018-07-15T09:10:05.238Z,73.4
2018-07-15T09:20:03.544Z,67
2018-07-15T09:25:05.602Z,71.7
2018-07-15T09:30:18.229Z,71.6
2018-07-15T09:35:18.727Z,69.6
2018-07-15T09:40:05.242Z,70.4
2018-07-15T09:45:10.735Z,70.3
2018-07-15T09:50:10.763Z,69.7
2018-07-15T10:00:38.544Z,70.2
2018-07-15T10:05:38.401Z,67.6
2018-07-15T10:15:03.574Z,67.5
2018-07-15T10:20:05.598Z,65.1
2018-07-15T10:30:10.470Z,63.8
2018-07-15T10:35:15.961Z,63.5
2018-07-15T10:40:18.020Z,63.5
2018-07-15T10:50:07.708Z,60.6
2018-07-15T10:55:05.697Z,60.8
2018-07-15T11:00:15.813Z,61.7
2018-07-15T11:10:36.371Z,59.9
2018-07-15T11:15:25.558Z,61.1
2018-07-15T11:25:05.157Z,58.8
2018-07-15T11:30:03.562Z,58.6
2018-07-15T11:35:08.158Z,61
2018-07-15T11:40:20.696Z,59.3
2018-07-15T11:50:03.171Z,58.9
2018-07-15T11:55:02.589Z,60.4
2018-07-15T12:00:13.201Z,59
2018-07-15T12:05:03.491Z,59
2018-07-15T12:10:10.991Z,51.2
2018-07-15T12:15:02.877Z,6.4
2018-07-15T12:20:03.390Z,58.1
2018-07-15T12:25:18.048Z,57.7
2018-07-15T12:30:27.981Z,58.6
2018-07-15T12:35:03.445Z,58.6
2018-07-15T12:40:26.132Z,55.7
2018-07-15T12:45:37.966Z,55.9
2018-07-15T12:50:18.534Z,54.4
2018-07-15T12:55:23.128Z,54.9
2018-07-15T13:00:10.168Z,54.3
2018-07-15T13:05:25.820Z,55.7
2018-07-15T13:15:03.072Z,53.9
2018-07-15T13:20:10.310Z,54.8
2018-07-15T13:25:05.794Z,54.2
2018-07-15T13:30:08.286Z,51.7
2018-07-15T13:35:02.703Z,51.6
2018-07-15T13:45:08.024Z,42.6
2018-07-15T13:50:08.596Z,40
2018-07-15T13:55:10.662Z,37.2
2018-07-15T14:05:05.308Z,30.7
2018-07-15T14:10:08.417Z,32.1
2018-07-15T14:15:18.297Z,30
2018-07-15T14:20:07.954Z,30.6
2018-07-15T14:30:08.022Z,29.2
2018-07-15T14:35:20.309Z,31.3
2018-07-15T14:40:05.846Z,33.4
2018-07-15T14:45:05.570Z,34.9
2018-07-15T14:50:10.789Z,34.2
2018-07-15T14:55:05.386Z,34.2
2018-07-15T15:00:08.109Z,34
2018-07-15T15:05:25.388Z,33.4
2018-07-15T15:10:03.400Z,33.4
2018-07-15T15:15:10.628Z,35
2018-07-15T15:20:18.547Z,36.6
2018-07-15T15:25:13.020Z,37
2018-07-15T15:30:11.163Z,38.5
2018-07-15T15:35:05.746Z,40
2018-07-15T15:40:07.853Z,39.7
2018-07-15T15:45:08.716Z,40.3
2018-07-15T15:50:12.833Z,40.4
2018-07-15T16:00:33.177Z,41.6
2018-07-15T16:05:07.741Z,40.3
2018-07-15T16:10:07.769Z,38.9
2018-07-15T16:15:05.890Z,39
2018-07-15T16:20:36.461Z,38.2
2018-07-15T16:25:07.951Z,38.4
2018-07-15T16:30:16.113Z,38.8
2018-07-15T16:35:33.439Z,40.4
2018-07-15T16:40:13.576Z,40.2
2018-07-15T16:45:28.290Z,39.8
2018-07-15T16:50:02.818Z,39.8
2018-07-15T16:55:31.245Z,42
2018-07-15T17:00:10.788Z,42.3
2018-07-15T17:05:05.265Z,43.3
2018-07-15T17:10:18.486Z,45.3
2018-07-15T17:15:38.378Z,44.2
2018-07-15T17:20:33.512Z,44.7
2018-07-15T17:25:23.225Z,44.3
2018-07-15T17:30:05.203Z,44
2018-07-15T17:35:10.861Z,45
2018-07-15T17:50:02.678Z,46.8
2018-07-15T17:55:20.874Z,48.1
2018-07-15T18:00:31.162Z,48.2
2018-07-15T18:05:12.707Z,48.8
2018-07-15T18:10:12.843Z,48.7
2018-07-15T18:15:03.193Z,48.7
2018-07-15T18:20:10.308Z,50.4
2018-07-15T18:25:16.192Z,51.4
2018-07-15T18:30:22.813Z,51.5
2018-07-15T18:35:08.304Z,52
2018-07-15T18:40:08.241Z,52.6
2018-07-15T18:45:05.379Z,51.6
2018-07-15T18:55:05.906Z,53.3
2018-07-15T19:00:08.505Z,53.5
2018-07-15T19:05:02.962Z,53.5
2018-07-15T19:10:02.955Z,54.4
2018-07-15T19:15:10.956Z,55.6
2018-07-15T19:20:10.320Z,59
2018-07-15T19:25:20.940Z,59.2
2018-07-15T19:30:21.101Z,58.2
2018-07-15T19:35:05.392Z,59.9
2018-07-15T19:50:03.016Z,61.6
2018-07-15T19:55:13.627Z,61.6
2018-07-15T20:00:05.624Z,65.9
2018-07-15T20:05:06.104Z,65.9
2018-07-15T20:15:05.791Z,68.2
2018-07-15T20:25:17.865Z,70.9
2018-07-15T20:30:08.348Z,73.2
2018-07-15T20:35:23.067Z,74.5
2018-07-15T20:40:25.718Z,75.9
2018-07-15T20:45:23.396Z,75.8
2018-07-15T20:50:05.613Z,77.5
2018-07-15T20:55:05.956Z,77.8
2018-07-15T21:05:12.986Z,80.6
2018-07-15T21:10:02.865Z,80.7
2018-07-15T21:15:13.426Z,82.9
2018-07-15T21:20:23.224Z,84.4
2018-07-15T21:25:05.149Z,85.5
2018-07-15T21:30:12.675Z,86.9
2018-07-15T21:35:03.029Z,86.9
2018-07-15T21:40:13.286Z,89.9
2018-07-15T21:45:25.618Z,90.1
2018-07-15T21:50:05.653Z,90.6
2018-07-15T21:55:03.498Z,90.5
2018-07-15T22:00:20.681Z,91.5
2018-07-15T22:05:03.374Z,91.5
2018-07-15T22:15:17.940Z,93.5
2018-07-15T22:20:08.565Z,92.4
2018-07-15T22:25:07.974Z,92.9
2018-07-15T22:30:05.988Z,91.8
2018-07-15T22:35:02.921Z,91.8
2018-07-15T22:40:02.801Z,91.1
2018-07-15T22:45:10.811Z,91.9
2018-07-15T22:55:16.189Z,92
2018-07-15T23:00:05.099Z,91.9
2018-07-15T23:05:03.021Z,91.8
2018-07-15T23:20:08.588Z,93.5
2018-07-15T23:25:38.379Z,94.2
2018-07-15T23:30:17.936Z,94.6
2018-07-15T23:40:35.803Z,95.8
2018-07-15T23:45:08.287Z,96.5
2018-07-15T23:50:02.688Z,96.5
2018-07-15T23:55:33.472Z,97.4
